Time;durP1;ratioP1;P1;durP2;ratioP2;P2;SDS_P1;SDS_P2;PMS_P1;PMS_P2;Temp;Humidity;BMP_temperature;BMP_pressure;BME280_temperature;BME280_humidity;BME280_pressure;Samples;Min_cycle;Max_cycle;Signal;HPM_P1;HPM_P2
2022/12/29 00:01:39;;;;;;;4.68;1.10;;;13.40;98.00;;;;;;6250052;28;20534;-80
2022/12/29 00:04:42;;;;;;;1.83;1.20;;;13.40;98.00;;;;;;6251223;28;20404;-81
2022/12/29 00:07:44;;;;;;;3.08;1.20;;;13.40;98.10;;;;;;6249848;28;20049;-80
2022/12/29 00:10:45;;;;;;;1.23;1.05;;;13.40;98.10;;;;;;6249527;28;20049;-81
2022/12/29 00:17:07;;;;;;;1.90;1.70;;;13.40;98.20;;;;;;6249833;28;20045;-80
2022/12/29 00:36:58;;;;;;;3.05;1.80;;;13.30;98.70;;;;;;6248291;28;20041;-80
2022/12/29 00:46:47;;;;;;;3.75;1.52;;;13.20;98.90;;;;;;6248061;28;20466;-81
2022/12/29 00:49:49;;;;;;;5.53;1.55;;;13.20;99.00;;;;;;6248070;28;20527;-81
2022/12/29 00:52:51;;;;;;;2.83;1.67;;;13.20;99.20;;;;;;6242438;28;20040;-80
2022/12/29 00:55:53;;;;;;;2.47;1.60;;;13.20;99.50;;;;;;6238966;28;20053;-80
2022/12/29 00:58:55;;;;;;;2.85;2.05;;;13.10;99.90;;;;;;6246110;28;20046;-80
2022/12/29 01:01:57;;;;;;;2.85;1.70;;;13.00;99.90;;;;;;6247582;28;20049;-80
2022/12/29 01:04:58;;;;;;;2.05;1.48;;;12.90;99.90;;;;;;6246961;28;20049;-81
2022/12/29 01:08:01;;;;;;;2.08;1.83;;;12.80;99.90;;;;;;6247366;28;20056;-79
2022/12/29 01:11:05;;;;;;;2.38;1.45;;;12.80;99.90;;;;;;6247397;28;20055;-79
2022/12/29 01:14:07;;;;;;;1.50;1.40;;;12.80;99.90;;;;;;6248312;28;20053;-81
2022/12/29 01:17:09;;;;;;;2.03;1.35;;;12.80;99.90;;;;;;6246783;28;20499;-79
2022/12/29 01:20:12;;;;;;;4.18;2.03;;;12.80;99.90;;;;;;6247289;28;20060;-79
2022/12/29 01:23:15;;;;;;;1.65;1.45;;;12.80;99.90;;;;;;6248109;28;20056;-82
2022/12/29 01:26:18;;;;;;;3.38;1.60;;;12.90;99.90;;;;;;6247779;28;20050;-79
2022/12/29 01:29:20;;;;;;;3.55;1.90;;;12.90;99.90;;;;;;6247204;28;20050;-80
2022/12/29 01:32:22;;;;;;;1.65;1.38;;;12.90;99.90;;;;;;6247672;28;20056;-81
2022/12/29 01:35:23;;;;;;;2.08;1.35;;;12.90;99.90;;;;;;6244208;28;20046;-79
2022/12/29 01:38:26;;;;;;;2.13;1.30;;;12.90;99.90;;;;;;6235927;28;20042;-80
2022/12/29 01:41:28;;;;;;;5.30;2.08;;;12.90;99.90;;;;;;6247066;28;20060;-80
2022/12/29 01:44:52;;;;;;;4.38;1.70;;;12.90;99.90;;;;;;6247057;28;20049;-79
2022/12/29 01:47:57;;;;;;;3.80;1.42;;;12.90;99.90;;;;;;6246085;28;20046;-80
2022/12/29 01:50:59;;;;;;;4.15;1.88;;;12.90;99.90;;;;;;6247089;28;20060;-79
2022/12/29 01:54:06;;;;;;;2.45;1.50;;;12.90;99.90;;;;;;6247286;28;20049;-80
2022/12/29 01:57:11;;;;;;;2.83;2.08;;;12.80;99.90;;;;;;6239403;28;20053;-80
2022/12/29 02:00:14;;;;;;;3.55;1.20;;;12.80;99.90;;;;;;6221608;28;20052;-81
2022/12/29 02:03:18;;;;;;;1.40;1.30;;;12.90;99.90;;;;;;6222286;28;20053;-80
2022/12/29 02:06:25;;;;;;;1.92;1.30;;;12.90;99.90;;;;;;6223370;28;20046;-80
2022/12/29 02:09:28;;;;;;;3.65;1.52;;;12.90;99.90;;;;;;6224642;28;20053;-79
2022/12/29 02:12:30;;;;;;;7.40;3.50;;;12.80;99.90;;;;;;6226954;28;20462;-80
2022/12/29 02:15:45;;;;;;;1.77;1.48;;;12.80;99.90;;;;;;6227708;28;20050;-80
2022/12/29 02:18:58;;;;;;;4.90;1.33;;;12.80;99.90;;;;;;6226227;28;20058;-79
2022/12/29 02:22:11;;;;;;;2.22;1.70;;;12.80;99.90;;;;;;6227588;28;20049;-79
2022/12/29 02:25:38;;;;;;;4.40;1.52;;;12.80;99.90;;;;;;6226702;28;20057;-80
2022/12/29 02:29:06;;;;;;;3.70;1.42;;;12.80;99.90;;;;;;6225875;28;20073;-79
2022/12/29 02:32:20;;;;;;;2.13;1.70;;;12.90;99.90;;;;;;6226482;28;20534;-79
2022/12/29 02:35:31;;;;;;;7.40;2.30;;;12.90;99.90;;;;;;6226540;28;20053;-79
2022/12/29 02:38:48;;;;;;;3.00;1.90;;;12.80;99.90;;;;;;6225679;28;20046;-80
2022/12/29 02:42:00;;;;;;;4.35;1.83;;;12.80;99.90;;;;;;6227239;28;20046;-79
2022/12/29 02:45:07;;;;;;;2.33;1.50;;;12.80;99.90;;;;;;6226396;28;20045;-80
2022/12/29 02:48:17;;;;;;;3.53;1.65;;;12.90;99.90;;;;;;6225309;28;20042;-81
2022/12/29 02:51:23;;;;;;;3.10;1.48;;;12.90;99.90;;;;;;6226505;28;20045;-81
2022/12/29 02:54:43;;;;;;;2.72;1.30;;;12.90;99.90;;;;;;6226075;28;20050;-80
2022/12/29 02:57:45;;;;;;;2.60;1.80;;;12.90;99.90;;;;;;6249801;28;20557;-80
2022/12/29 03:01:01;;;;;;;1.48;0.95;;;12.90;99.90;;;;;;6251224;28;20045;-80
2022/12/29 03:04:26;;;;;;;3.13;1.80;;;12.80;99.90;;;;;;6251813;28;20042;-80
2022/12/29 03:07:37;;;;;;;2.25;1.50;;;12.80;99.90;;;;;;6249916;28;20060;-80
2022/12/29 03:10:48;;;;;;;3.47;1.42;;;12.80;99.90;;;;;;6251190;28;20046;-80
2022/12/29 03:17:21;;;;;;;2.88;1.50;;;12.90;99.90;;;;;;6250261;28;20045;-80
2022/12/29 03:20:32;;;;;;;2.05;1.23;;;12.90;99.90;;;;;;6250272;28;20060;-81
2022/12/29 03:23:34;;;;;;;5.45;1.33;;;12.90;99.90;;;;;;6250013;28;20045;-80
2022/12/29 03:26:37;;;;;;;3.90;1.13;;;12.90;99.90;;;;;;6250394;28;20052;-82
2022/12/29 03:29:44;;;;;;;1.92;1.35;;;12.90;99.90;;;;;;6251237;28;20049;-80
2022/12/29 03:32:49;;;;;;;4.63;1.02;;;12.90;99.90;;;;;;6249264;28;20045;-80
2022/12/29 03:35:56;;;;;;;4.82;1.17;;;12.90;99.90;;;;;;6249961;28;20060;-80
2022/12/29 03:39:02;;;;;;;2.47;1.50;;;13.00;99.90;;;;;;6228194;28;20054;-80
2022/12/29 03:42:10;;;;;;;2.70;1.50;;;12.90;99.90;;;;;;6224475;28;20042;-80
2022/12/29 03:45:12;;;;;;;2.85;2.55;;;13.00;99.90;;;;;;6225860;28;20050;-82
2022/12/29 03:48:13;;;;;;;4.53;1.30;;;13.00;99.90;;;;;;6226011;28;20046;-81
2022/12/29 03:51:16;;;;;;;2.22;1.33;;;13.00;99.90;;;;;;6225718;28;20050;-82
2022/12/29 03:54:18;;;;;;;2.88;0.98;;;13.00;99.90;;;;;;6225353;28;20050;-82
2022/12/29 03:57:20;;;;;;;2.40;1.40;;;13.00;99.90;;;;;;6227849;28;20052;-82
2022/12/29 04:00:21;;;;;;;8.85;2.30;;;12.90;99.90;;;;;;6248142;28;20050;-82
2022/12/29 04:03:23;;;;;;;3.50;1.77;;;12.80;99.90;;;;;;6249737;28;20407;-82
2022/12/29 04:06:26;;;;;;;1.52;1.23;;;12.80;99.90;;;;;;6251644;28;20056;-82
2022/12/29 04:09:29;;;;;;;5.13;3.55;;;12.70;99.90;;;;;;6246068;28;20045;-81
2022/12/29 04:12:31;;;;;;;5.07;1.38;;;12.70;99.90;;;;;;6246770;28;20122;-82
2022/12/29 04:15:33;;;;;;;4.03;1.95;;;12.70;99.90;;;;;;6246745;28;20054;-81
2022/12/29 04:18:34;;;;;;;9.98;1.73;;;12.60;99.90;;;;;;6246692;28;20049;-82
2022/12/29 04:21:37;;;;;;;6.13;2.28;;;12.60;99.90;;;;;;6247688;28;20054;-82
2022/12/29 04:24:39;;;;;;;4.15;1.17;;;12.60;99.90;;;;;;6247092;28;20137;-81
2022/12/29 04:27:41;;;;;;;3.22;1.40;;;12.60;99.90;;;;;;6246104;28;20042;-81
2022/12/29 04:30:43;;;;;;;4.10;1.55;;;12.70;99.90;;;;;;6247675;28;20046;-82
2022/12/29 04:33:45;;;;;;;1.35;1.25;;;12.70;99.90;;;;;;6247773;28;20041;-82
2022/12/29 04:36:48;;;;;;;3.35;1.33;;;12.70;99.90;;;;;;6248847;28;20045;-82
2022/12/29 04:39:50;;;;;;;2.85;1.88;;;12.70;99.90;;;;;;6246968;28;20045;-81
2022/12/29 04:42:52;;;;;;;2.22;1.98;;;12.70;99.90;;;;;;6246890;28;20080;-82
2022/12/29 04:45:53;;;;;;;5.72;1.45;;;12.70;99.90;;;;;;6248137;28;20696;-82
2022/12/29 04:48:55;;;;;;;4.35;2.00;;;12.70;99.90;;;;;;6245670;28;20049;-82
2022/12/29 04:51:58;;;;;;;4.95;1.48;;;12.70;99.90;;;;;;6247275;28;20053;-82
2022/12/29 04:55:00;;;;;;;4.20;1.63;;;12.70;99.90;;;;;;6246234;28;20048;-82
2022/12/29 04:58:01;;;;;;;1.52;1.42;;;12.80;99.90;;;;;;6247629;28;20049;-82
2022/12/29 05:01:03;;;;;;;2.80;1.58;;;12.90;99.90;;;;;;6245960;28;20055;-82
2022/12/29 05:04:05;;;;;;;3.97;1.67;;;12.90;99.90;;;;;;6247629;28;20049;-82
2022/12/29 05:07:08;;;;;;;4.60;1.73;;;13.00;99.90;;;;;;6248662;28;20052;-82
2022/12/29 05:10:11;;;;;;;2.33;1.65;;;13.00;99.90;;;;;;6248176;28;20045;-82
2022/12/29 05:13:12;;;;;;;2.60;1.70;;;13.00;99.90;;;;;;6249806;28;20053;-82
2022/12/29 05:16:14;;;;;;;5.13;2.30;;;13.00;99.90;;;;;;6249499;28;20449;-83
2022/12/29 05:19:20;;;;;;;2.80;1.67;;;13.00;99.90;;;;;;6248659;28;20046;-82
2022/12/29 05:22:23;;;;;;;3.35;1.83;;;13.00;99.90;;;;;;6249164;28;20130;-82
2022/12/29 05:25:24;;;;;;;3.03;1.90;;;13.10;99.90;;;;;;6249621;28;20495;-81
2022/12/29 05:28:26;;;;;;;4.70;1.65;;;13.10;99.90;;;;;;6248716;28;20056;-82
2022/12/29 05:31:28;;;;;;;2.47;2.08;;;13.10;99.90;;;;;;6249016;28;20057;-81
2022/12/29 05:34:30;;;;;;;2.58;1.77;;;13.10;99.90;;;;;;6250665;28;20045;-82
2022/12/29 05:37:33;;;;;;;2.45;1.90;;;13.10;99.90;;;;;;6249166;28;20060;-82
2022/12/29 05:40:34;;;;;;;4.93;1.70;;;13.10;99.90;;;;;;6245715;28;20049;-82
2022/12/29 05:43:36;;;;;;;2.30;1.77;;;13.10;99.90;;;;;;6249709;28;20052;-81
2022/12/29 05:46:38;;;;;;;2.45;1.58;;;13.10;99.90;;;;;;6254275;28;20049;-82
2022/12/29 05:49:39;;;;;;;4.05;1.80;;;13.10;99.90;;;;;;6255026;28;20057;-82
2022/12/29 05:52:42;;;;;;;8.07;4.57;;;13.10;99.90;;;;;;6257034;28;20049;-82
2022/12/29 05:55:45;;;;;;;4.20;2.28;;;13.10;99.90;;;;;;6256065;28;20057;-82
2022/12/29 05:58:46;;;;;;;3.55;1.80;;;13.00;99.90;;;;;;6254271;28;20050;-81
2022/12/29 06:01:49;;;;;;;3.42;2.05;;;13.00;99.90;;;;;;6253752;28;20041;-83
2022/12/29 06:04:50;;;;;;;3.03;2.05;;;13.00;99.90;;;;;;6255548;28;20048;-82
2022/12/29 06:07:53;;;;;;;2.67;1.30;;;13.00;99.90;;;;;;6254990;28;20072;-82
2022/12/29 06:10:55;;;;;;;2.92;2.33;;;12.90;99.90;;;;;;6257170;28;20447;-81
2022/12/29 06:13:57;;;;;;;16.30;2.20;;;12.90;99.90;;;;;;6257070;28;20191;-82
2022/12/29 06:16:59;;;;;;;3.25;2.22;;;12.90;99.90;;;;;;6257217;28;20049;-82
2022/12/29 06:20:01;;;;;;;2.17;1.80;;;13.00;99.90;;;;;;6255888;28;20049;-83
2022/12/29 06:23:04;;;;;;;2.97;1.80;;;13.00;99.90;;;;;;6257118;28;20052;-82
2022/12/29 06:26:06;;;;;;;2.92;1.48;;;13.10;99.90;;;;;;6257380;28;20052;-81
2022/12/29 06:29:08;;;;;;;3.17;1.98;;;13.20;99.90;;;;;;6258203;28;20042;-82
2022/12/29 06:32:10;;;;;;;6.10;2.38;;;13.30;99.90;;;;;;6259340;28;20453;-81
2022/12/29 06:35:12;;;;;;;1.70;1.50;;;13.30;99.80;;;;;;6253499;28;20653;-82
2022/12/29 06:38:15;;;;;;;2.55;2.00;;;13.30;99.60;;;;;;6252353;28;20053;-81
2022/12/29 06:41:17;;;;;;;3.17;1.80;;;13.30;99.50;;;;;;6254466;28;20053;-81
2022/12/29 06:44:18;;;;;;;4.88;2.25;;;13.30;99.40;;;;;;6253989;28;20049;-80
2022/12/29 06:47:20;;;;;;;3.88;2.13;;;13.20;99.40;;;;;;6254080;28;20042;-82
2022/12/29 06:50:22;;;;;;;10.13;3.97;;;13.20;99.30;;;;;;6254210;28;20424;-82
2022/12/29 06:53:25;;;;;;;4.05;1.90;;;13.20;99.30;;;;;;6253410;28;20045;-81
2022/12/29 06:56:26;;;;;;;7.43;2.20;;;13.20;99.30;;;;;;6253291;28;20056;-81
2022/12/29 06:59:28;;;;;;;2.70;1.70;;;13.20;99.20;;;;;;6251997;28;20053;-81
2022/12/29 07:02:30;;;;;;;3.67;2.20;;;13.20;99.20;;;;;;6249795;28;20049;-80
2022/12/29 07:05:32;;;;;;;4.20;2.28;;;13.10;99.10;;;;;;6251938;28;20511;-81
2022/12/29 07:08:35;;;;;;;3.22;2.03;;;13.20;99.00;;;;;;6253573;28;20137;-79
2022/12/29 07:11:37;;;;;;;2.95;2.58;;;13.20;99.00;;;;;;6254242;28;20050;-81
2022/12/29 07:14:39;;;;;;;2.83;1.88;;;13.20;98.90;;;;;;6255214;28;20053;-81
2022/12/29 07:17:41;;;;;;;3.17;2.13;;;13.30;98.80;;;;;;6253450;28;20504;-81
2022/12/29 07:20:42;;;;;;;2.45;2.15;;;13.30;98.60;;;;;;6254105;28;20049;-81
2022/12/29 07:23:45;;;;;;;3.33;2.40;;;13.30;98.50;;;;;;6254091;28;20053;-81
2022/12/29 07:26:47;;;;;;;4.60;2.45;;;13.30;98.40;;;;;;6254877;28;20045;-81
2022/12/29 07:29:49;;;;;;;3.75;1.83;;;13.30;98.30;;;;;;6253574;28;20056;-80
2022/12/29 07:32:50;;;;;;;2.65;2.22;;;13.30;98.20;;;;;;6256322;28;20041;-81
2022/12/29 07:35:52;;;;;;;2.58;2.05;;;13.40;98.00;;;;;;6252589;28;20053;-82
2022/12/29 07:38:55;;;;;;;3.05;2.33;;;13.40;97.80;;;;;;6253497;28;20124;-81
2022/12/29 07:41:57;;;;;;;3.40;2.05;;;13.50;97.70;;;;;;6253109;28;20049;-82
2022/12/29 07:44:58;;;;;;;2.38;1.67;;;13.50;97.60;;;;;;6254440;28;20048;-82
2022/12/29 07:48:02;;;;;;;6.00;3.10;;;13.60;97.50;;;;;;6248522;28;20053;-82
2022/12/29 07:51:03;;;;;;;6.38;2.10;;;13.60;97.40;;;;;;6255380;28;20073;-81
2022/12/29 07:54:07;;;;;;;4.80;3.03;;;13.60;97.30;;;;;;6257298;28;20045;-82
2022/12/29 07:57:08;;;;;;;3.15;2.33;;;13.60;97.10;;;;;;6257087;28;20045;-81
2022/12/29 08:00:11;;;;;;;3.17;1.60;;;13.50;97.10;;;;;;6255495;28;20060;-81
2022/12/29 08:03:13;;;;;;;2.65;1.60;;;13.60;97.00;;;;;;6221119;28;20048;-81
2022/12/29 08:06:15;;;;;;;9.27;6.38;;;13.50;96.90;;;;;;6244216;28;20439;-83
2022/12/29 08:09:18;;;;;;;8.68;2.45;;;13.50;96.90;;;;;;6246914;28;20051;-82
2022/12/29 08:12:19;;;;;;;7.82;4.80;;;13.50;97.00;;;;;;6254221;28;20052;-80
2022/12/29 08:15:21;;;;;;;38.80;28.40;;;13.50;97.10;;;;;;6255917;28;20038;-82
2022/12/29 08:18:23;;;;;;;69.00;39.30;;;13.50;97.00;;;;;;6255829;28;20426;-81
2022/12/29 08:21:24;;;;;;;35.92;23.67;;;13.60;96.90;;;;;;6256679;28;20084;-82
2022/12/29 08:24:27;;;;;;;1.67;1.58;;;13.60;96.80;;;;;;6255746;28;20053;-82
2022/12/29 08:27:29;;;;;;;7.50;4.53;;;13.70;97.00;;;;;;6256646;28;20044;-82
2022/12/29 08:30:31;;;;;;;6.68;2.95;;;13.70;96.80;;;;;;6254894;28;21056;-82
2022/12/29 08:33:33;;;;;;;4.05;2.45;;;13.70;96.60;;;;;;6255160;28;20392;-81
2022/12/29 08:36:35;;;;;;;5.40;3.60;;;13.80;96.60;;;;;;6244239;28;20055;-81
2022/12/29 08:39:38;;;;;;;2.97;2.00;;;13.80;96.60;;;;;;6229169;28;20052;-83
2022/12/29 08:42:39;;;;;;;4.15;2.90;;;13.80;96.50;;;;;;6229864;28;20133;-84
2022/12/29 08:45:41;;;;;;;4.53;4.10;;;13.80;96.60;;;;;;6230280;28;20065;-84
2022/12/29 08:48:43;;;;;;;3.75;2.00;;;13.80;96.70;;;;;;6228745;28;20053;-84
2022/12/29 08:51:44;;;;;;;5.45;4.40;;;13.90;96.70;;;;;;6229766;28;20053;-82
2022/12/29 08:54:48;;;;;;;11.30;6.95;;;13.90;96.60;;;;;;6229139;28;20042;-81
2022/12/29 08:57:49;;;;;;;3.20;2.67;;;14.00;96.40;;;;;;6231554;28;20050;-83
2022/12/29 09:00:53;;;;;;;2.22;1.83;;;14.00;96.30;;;;;;6227477;28;20131;-82
2022/12/29 09:03:55;;;;;;;2.83;1.75;;;14.00;96.20;;;;;;6241651;28;20076;-83
2022/12/29 09:06:57;;;;;;;3.75;2.22;;;14.00;96.20;;;;;;6242842;28;20041;-82
2022/12/29 09:10:00;;;;;;;2.15;1.30;;;14.10;96.30;;;;;;6251157;28;20049;-81
2022/12/29 09:13:01;;;;;;;4.70;1.80;;;14.10;96.30;;;;;;6251905;28;20124;-81
2022/12/29 09:16:03;;;;;;;3.70;1.90;;;14.10;96.30;;;;;;6247854;28;20052;-82
2022/12/29 09:19:05;;;;;;;6.03;2.90;;;14.10;96.30;;;;;;6245812;28;20042;-82
2022/12/29 09:22:06;;;;;;;4.35;1.80;;;14.10;96.30;;;;;;6258834;28;20046;-80
2022/12/29 09:25:10;;;;;;;5.28;2.42;;;14.20;96.30;;;;;;6258316;28;20041;-82
2022/12/29 09:28:12;;;;;;;5.10;1.48;;;14.20;96.40;;;;;;6257656;28;20045;-82
2022/12/29 09:31:14;;;;;;;4.28;1.98;;;14.30;96.50;;;;;;6258178;28;20045;-81
2022/12/29 09:34:16;;;;;;;3.70;1.60;;;14.50;96.60;;;;;;6265241;28;20537;-82
2022/12/29 09:37:18;;;;;;;2.78;1.40;;;14.60;96.70;;;;;;6247465;28;20056;-80
2022/12/29 09:40:29;;;;;;;5.57;2.10;;;14.80;96.20;;;;;;6256493;28;20057;-82
2022/12/29 09:43:55;;;;;;;2.35;1.58;;;14.80;96.20;;;;;;6257779;28;20045;-83
2022/12/29 09:47:00;;;;;;;3.33;1.70;;;14.70;96.30;;;;;;6250171;28;20049;-81
2022/12/29 09:50:05;;;;;;;5.65;1.95;;;14.70;96.50;;;;;;6240455;28;20447;-81
2022/12/29 09:53:16;;;;;;;9.73;1.98;;;14.80;96.40;;;;;;6231893;28;20045;-83
2022/12/29 09:56:22;;;;;;;3.33;1.42;;;14.90;96.60;;;;;;6232134;28;20041;-83
2022/12/29 09:59:27;;;;;;;3.28;1.55;;;15.20;96.50;;;;;;6255390;28;20050;-83
2022/12/29 10:02:35;;;;;;;3.90;2.83;;;15.40;96.20;;;;;;6255748;28;20049;-81
2022/12/29 10:05:46;;;;;;;14.02;2.42;;;15.50;96.20;;;;;;6254504;28;20124;-82
2022/12/29 10:08:58;;;;;;;5.28;3.40;;;15.80;96.20;;;;;;6255120;28;20419;-81
2022/12/29 10:12:16;;;;;;;7.25;4.10;;;15.80;95.80;;;;;;6252201;28;20049;-83
2022/12/29 10:15:25;;;;;;;;;;;15.80;96.00;;;;;;6257226;28;20088;-83
2022/12/29 10:18:43;;;;;;;7.60;6.75;;;15.70;96.00;;;;;;6256993;28;19932;-83
2022/12/29 10:22:00;;;;;;;4.47;3.30;;;15.50;96.00;;;;;;6256703;28;20053;-83
2022/12/29 10:25:11;;;;;;;3.95;2.20;;;15.30;96.70;;;;;;6256238;28;20041;-83
2022/12/29 10:28:21;;;;;;;4.85;1.80;;;15.20;97.00;;;;;;6257040;28;20538;-82
2022/12/29 10:31:24;;;;;;;3.83;1.98;;;15.10;96.90;;;;;;6255716;28;20282;-81
2022/12/29 10:34:32;;;;;;;2.22;1.98;;;15.20;97.10;;;;;;6255564;28;20139;-82
2022/12/29 10:37:43;;;;;;;5.70;1.70;;;15.30;96.90;;;;;;6247860;28;20061;-81
2022/12/29 10:40:50;;;;;;;4.07;2.28;;;15.40;96.80;;;;;;6254871;28;20049;-82
2022/12/29 10:43:55;;;;;;;2.25;1.88;;;15.50;96.80;;;;;;6256727;28;20534;-82
2022/12/29 10:47:01;;;;;;;6.70;2.63;;;15.40;96.80;;;;;;6256869;28;20037;-82
2022/12/29 10:50:05;;;;;;;3.80;1.50;;;15.30;96.90;;;;;;6260280;28;20068;-82
2022/12/29 10:53:07;;;;;;;3.50;1.83;;;15.20;96.90;;;;;;6259392;28;20049;-82
2022/12/29 10:56:28;;;;;;;1.75;1.65;;;15.10;97.10;;;;;;6256549;28;20045;-82
2022/12/29 10:59:33;;;;;;;3.70;1.73;;;15.10;97.20;;;;;;6256012;28;20041;-82
2022/12/29 11:03:01;;;;;;;4.88;2.00;;;15.10;97.30;;;;;;6256275;28;20113;-81
2022/12/29 11:06:10;;;;;;;3.88;1.90;;;15.00;97.20;;;;;;6257765;28;20052;-81
2022/12/29 11:09:17;;;;;;;5.85;1.80;;;15.00;97.20;;;;;;6259508;28;20053;-83
2022/12/29 11:12:25;;;;;;;4.25;1.90;;;15.00;97.10;;;;;;6254470;28;20057;-82
2022/12/29 11:15:28;;;;;;;;;;;14.90;97.30;;;;;;6243659;28;20096;-81
2022/12/29 11:18:35;;;;;;;5.40;2.17;;;14.80;97.40;;;;;;6234229;28;19953;-81
2022/12/29 11:21:40;;;;;;;3.53;1.75;;;14.80;97.40;;;;;;6236974;28;20492;-82
2022/12/29 11:24:45;;;;;;;5.47;4.57;;;14.90;97.50;;;;;;6233806;28;20703;-82
2022/12/29 11:27:57;;;;;;;3.47;2.17;;;14.90;97.50;;;;;;6230047;28;20056;-83
2022/12/29 11:31:02;;;;;;;4.38;3.60;;;14.90;97.50;;;;;;6231322;28;20064;-81
2022/12/29 11:34:08;;;;;;;10.43;4.85;;;14.80;97.60;;;;;;6236947;28;20511;-81
2022/12/29 11:37:14;;;;;;;43.00;11.60;;;14.90;97.60;;;;;;6246227;28;20064;-80
2022/12/29 11:40:18;;;;;;;3.33;2.58;;;15.00;97.60;;;;;;6265764;28;20041;-81
2022/12/29 11:43:26;;;;;;;9.95;3.53;;;15.30;97.80;;;;;;6270261;28;20051;-79
2022/12/29 11:46:30;;;;;;;;;;;15.60;97.30;;;;;;6263591;28;20120;-79
2022/12/29 11:49:33;;;;;;;4.85;1.75;;;15.70;97.20;;;;;;6257748;28;19909;-81
2022/12/29 11:52:39;;;;;;;15.25;6.25;;;15.80;96.80;;;;;;6254986;28;20661;-81
2022/12/29 11:55:41;;;;;;;32.83;18.40;;;15.60;96.70;;;;;;6260413;28;20042;-82
2022/12/29 11:58:43;;;;;;;15.80;9.82;;;15.50;96.70;;;;;;6258013;28;20045;-81
2022/12/29 12:01:47;;;;;;;16.88;8.88;;;15.40;96.50;;;;;;6257213;28;20049;-81
2022/12/29 12:04:54;;;;;;;6.85;3.83;;;15.20;96.40;;;;;;6237376;28;20045;-78
2022/12/29 12:08:02;;;;;;;10.88;5.60;;;15.30;96.30;;;;;;6256514;28;20053;-81
2022/12/29 12:11:10;;;;;;;27.70;13.63;;;15.20;96.40;;;;;;6231922;28;20042;-82
2022/12/29 12:14:18;;;;;;;0.80;0.80;;;15.30;96.30;;;;;;6231947;28;20496;-82
2022/12/29 12:17:35;;;;;;;10.95;6.07;;;15.40;96.00;;;;;;6243112;28;20052;-79
2022/12/29 12:20:45;;;;;;;9.13;4.50;;;15.30;95.90;;;;;;6237730;28;20056;-80
2022/12/29 12:24:01;;;;;;;3.72;2.47;;;15.30;96.00;;;;;;6230034;28;20058;-82
2022/12/29 12:27:10;;;;;;;1.27;0.73;;;15.20;96.00;;;;;;6230815;28;20068;-82
2022/12/29 12:30:16;;;;;;;4.72;4.03;;;15.10;96.00;;;;;;6231177;28;20053;-81
2022/12/29 12:33:27;;;;;;;3.60;1.40;;;15.10;96.30;;;;;;6231585;28;20053;-82
2022/12/29 12:36:55;;;;;;;3.75;1.42;;;15.00;96.60;;;;;;6245518;28;20046;-82
2022/12/29 12:40:16;;;;;;;3.10;1.50;;;15.10;96.80;;;;;;6248805;28;20057;-81
2022/12/29 12:43:41;;;;;;;2.03;1.70;;;15.10;96.70;;;;;;6249550;28;20507;-80
2022/12/29 12:47:00;;;;;;;4.15;1.17;;;15.10;96.90;;;;;;6247433;28;20049;-81
2022/12/29 12:50:32;;;;;;;2.13;1.00;;;15.00;97.00;;;;;;6249906;28;20045;-81
2022/12/29 12:53:47;;;;;;;2.85;1.00;;;15.10;97.20;;;;;;6249648;28;20046;-80
2022/12/29 12:57:00;;;;;;;1.95;1.33;;;15.10;97.30;;;;;;6248134;28;20050;-81
2022/12/29 13:00:05;;;;;;;1.92;1.33;;;15.10;97.30;;;;;;6246051;28;20053;-79
2022/12/29 13:03:14;;;;;;;2.80;1.33;;;15.10;97.20;;;;;;6245618;28;20045;-81
2022/12/29 13:06:27;;;;;;;3.78;1.38;;;15.10;97.20;;;;;;6239924;28;20072;-79
2022/12/29 13:09:45;;;;;;;1.85;1.38;;;15.00;97.30;;;;;;6221399;28;20046;-80
2022/12/29 13:12:56;;;;;;;1.70;0.95;;;14.90;97.40;;;;;;6222429;28;20050;-79
2022/12/29 13:16:06;;;;;;;2.30;1.45;;;14.80;97.40;;;;;;6222054;28;20529;-79
2022/12/29 13:19:14;;;;;;;4.53;1.67;;;14.70;97.60;;;;;;6222870;28;20042;-81
2022/12/29 13:22:22;;;;;;;12.02;7.93;;;14.60;98.10;;;;;;6223104;28;20057;-80
2022/12/29 13:25:32;;;;;;;19.70;12.25;;;14.50;98.70;;;;;;6223609;28;20054;-82
2022/12/29 13:28:45;;;;;;;16.42;8.77;;;14.30;99.00;;;;;;6222291;28;20042;-80
2022/12/29 13:31:53;;;;;;;3.97;1.42;;;14.20;99.20;;;;;;6222675;28;20053;-80
2022/12/29 13:35:02;;;;;;;3.28;2.03;;;14.10;99.70;;;;;;6234563;28;20061;-80
2022/12/29 13:38:12;;;;;;;6.95;5.53;;;13.90;99.90;;;;;;6238451;28;20484;-81
2022/12/29 13:41:28;;;;;;;3.55;2.67;;;13.70;99.90;;;;;;6248472;28;20049;-79
2022/12/29 13:44:38;;;;;;;1.90;0.90;;;13.50;99.90;;;;;;6247443;28;20053;-81
2022/12/29 13:47:43;;;;;;;1.83;1.63;;;13.30;99.90;;;;;;6247465;28;20141;-81
2022/12/29 13:50:48;;;;;;;9.02;2.17;;;13.00;99.90;;;;;;6248245;28;20052;-82
2022/12/29 13:54:04;;;;;;;3.67;2.90;;;12.70;99.90;;;;;;6249869;28;20056;-82
2022/12/29 13:57:12;;;;;;;1.63;1.52;;;12.50;99.90;;;;;;6251463;28;20567;-82
2022/12/29 14:00:17;;;;;;;2.08;1.33;;;12.20;99.90;;;;;;6249306;28;20056;-82
2022/12/29 14:03:43;;;;;;;1.98;1.73;;;11.90;99.90;;;;;;6250605;28;20056;-81
2022/12/29 14:06:47;;;;;;;2.97;2.67;;;11.70;99.90;;;;;;6243726;28;20124;-82
2022/12/29 14:09:52;;;;;;;2.55;1.20;;;11.50;99.90;;;;;;6254614;28;20077;-82
2022/12/29 14:13:03;;;;;;;6.50;1.17;;;11.40;99.90;;;;;;6232169;28;20045;-82
2022/12/29 14:16:05;;;;;;;2.67;1.55;;;11.40;99.90;;;;;;6254027;28;20520;-82
2022/12/29 14:19:14;;;;;;;2.03;1.65;;;11.30;99.90;;;;;;6256766;28;20045;-83
2022/12/29 14:22:24;;;;;;;1.90;1.60;;;11.20;99.90;;;;;;6255604;28;20495;-82
2022/12/29 14:25:59;;;;;;;1.27;1.17;;;11.20;99.90;;;;;;6256736;28;20184;-81
2022/12/29 14:29:34;;;;;;;5.45;3.60;;;11.10;99.90;;;;;;6254599;28;20053;-80
2022/12/29 14:32:39;;;;;;;3.22;1.48;;;11.00;99.90;;;;;;6254473;28;20526;-84
2022/12/29 14:35:43;;;;;;;3.45;1.27;;;10.70;99.90;;;;;;6251359;28;20049;-79
2022/12/29 14:38:46;;;;;;;2.13;0.90;;;10.50;99.90;;;;;;6230000;28;20057;-79
2022/12/29 14:41:59;;;;;;;1.63;0.88;;;10.30;99.90;;;;;;6226349;28;20049;-78
2022/12/29 14:45:05;;;;;;;2.95;0.88;;;10.30;99.90;;;;;;6226043;28;20065;-79
2022/12/29 14:48:33;;;;;;;1.80;1.10;;;10.30;99.90;;;;;;6225292;28;20050;-79
2022/12/29 14:51:37;;;;;;;1.20;0.93;;;10.20;99.90;;;;;;6227531;28;20050;-81
2022/12/29 14:54:50;;;;;;;2.95;1.35;;;10.20;99.90;;;;;;6230383;28;20045;-79
2022/12/29 14:57:58;;;;;;;2.90;1.10;;;10.20;99.90;;;;;;6224130;28;20455;-78
2022/12/29 15:01:00;;;;;;;;;;;10.20;99.90;;;;;;6225482;28;20046;-78
2022/12/29 15:04:14;;;;;;;1.35;1.25;;;10.20;99.90;;;;;;6228164;28;19921;-79
2022/12/29 15:07:18;;;;;;;3.47;1.00;;;10.20;99.90;;;;;;6243263;28;20048;-79
2022/12/29 15:10:22;;;;;;;1.58;1.48;;;10.20;99.90;;;;;;6242129;28;20049;-79
2022/12/29 15:13:34;;;;;;;1.52;1.13;;;10.20;99.90;;;;;;6248467;28;20055;-78
2022/12/29 15:16:37;;;;;;;1.95;1.40;;;10.20;99.90;;;;;;6248205;28;20045;-79
2022/12/29 15:19:38;;;;;;;1.80;1.08;;;10.20;99.90;;;;;;6248062;28;20053;-79
2022/12/29 15:22:44;;;;;;;3.55;1.70;;;10.20;99.90;;;;;;6248652;28;20418;-79
2022/12/29 15:25:50;;;;;;;4.53;1.33;;;10.20;99.90;;;;;;6250233;28;20056;-79
2022/12/29 15:28:55;;;;;;;4.80;1.65;;;10.20;99.90;;;;;;6248181;28;20146;-80
2022/12/29 15:31:58;;;;;;;3.40;1.58;;;10.10;99.90;;;;;;6247863;28;20550;-78
2022/12/29 15:35:01;;;;;;;3.20;1.58;;;10.00;99.90;;;;;;6248384;28;20038;-78
2022/12/29 15:38:15;;;;;;;3.85;2.42;;;10.00;99.90;;;;;;6234347;28;20054;-80
2022/12/29 15:41:31;;;;;;;2.55;1.38;;;9.90;99.90;;;;;;6225026;28;20057;-79
2022/12/29 15:44:38;;;;;;;1.60;1.25;;;10.00;99.90;;;;;;6224355;28;20389;-80
2022/12/29 15:47:42;;;;;;;1.95;1.42;;;9.90;99.90;;;;;;6223798;28;20060;-80
2022/12/29 15:50:44;;;;;;;2.33;1.08;;;9.90;99.90;;;;;;6227205;28;20046;-80
2022/12/29 15:53:48;;;;;;;1.48;1.00;;;9.90;99.90;;;;;;6228141;28;20388;-81
2022/12/29 15:56:51;;;;;;;3.13;2.13;;;9.90;99.90;;;;;;6232709;28;20057;-81
2022/12/29 15:59:54;;;;;;;4.00;1.40;;;9.90;99.90;;;;;;6236405;28;20101;-82
2022/12/29 16:02:59;;;;;;;2.42;1.40;;;10.00;99.90;;;;;;6227498;28;20042;-81
2022/12/29 16:06:09;;;;;;;3.42;1.73;;;10.00;99.90;;;;;;6249045;28;20555;-80
2022/12/29 16:09:17;;;;;;;2.88;1.55;;;10.00;99.90;;;;;;6226155;28;20050;-82
2022/12/29 16:12:21;;;;;;;4.85;1.90;;;10.00;99.90;;;;;;6254508;28;20049;-81
2022/12/29 16:15:27;;;;;;;2.63;1.42;;;10.10;99.90;;;;;;6250680;28;20496;-82
2022/12/29 16:18:35;;;;;;;4.45;1.75;;;10.10;99.90;;;;;;6254947;28;20041;-81
2022/12/29 16:21:36;;;;;;;5.50;2.05;;;10.10;99.90;;;;;;6252277;28;20045;-81
2022/12/29 16:24:41;;;;;;;2.17;1.90;;;10.20;99.90;;;;;;6252049;28;20045;-80
2022/12/29 16:27:43;;;;;;;3.42;1.95;;;10.10;99.90;;;;;;6250939;28;20045;-81
2022/12/29 16:30:47;;;;;;;3.55;2.63;;;10.20;99.90;;;;;;6251687;28;20057;-80
2022/12/29 16:33:50;;;;;;;4.38;2.25;;;10.20;99.90;;;;;;6253172;28;20056;-81
2022/12/29 16:36:57;;;;;;;2.20;1.75;;;10.20;99.90;;;;;;6245487;28;20037;-81
2022/12/29 16:40:27;;;;;;;5.27;2.30;;;10.20;99.90;;;;;;6253610;28;20049;-81